Warm Springs, Virginia
Current Conditions -  °F | °C
As of 11:15 AM on Thursday 23 Oct 2014 (Local Time) from KHSP Reporting Station
Overcast Overcast  
Wind Chill: 33°   Ceiling: 800
Heat Index: 42°   Visibility: 10mi
Dew Point: 38°   Wind: 21mph
Humidity: 84%   Direction: 310°NW
Pressure: 30.04"   Gusts: 33mph
Location:  38.05°N, 79.79°W
Report Text: KHSP 231515Z AUTO 31018G29KT 10SM OVC008 06/03 A3004 RMK AO2 T00570032
Loading
Personal Weather Stations






























Interactive Weather Map
Tropical Storm Tracking
New forecast layout! Learn more

10-Day Weather Forecast

Advertisements
Track Severe Weather on mobile